Time;durP1;ratioP1;P1;durP2;ratioP2;P2;SDS_P1;SDS_P2;PMS_P1;PMS_P2;Temp;Humidity;BMP_temperature;BMP_pressure;BME280_temperature;BME280_humidity;BME280_pressure;Samples;Min_cycle;Max_cycle;Signal;HPM_P1;HPM_P2
2021/08/18 00:00:40;;;;;;;3.10;1.40;;;;;22.00;101429.00;;;;5050489;28;20214;-77
2021/08/18 00:03:09;;;;;;;2.95;1.50;;;;;22.00;101435.00;;;;5050049;28;20235;-78
2021/08/18 00:05:37;;;;;;;1.73;1.25;;;;;22.00;101435.00;;;;5050119;28;20206;-77
2021/08/18 00:08:06;;;;;;;2.58;1.83;;;;;22.00;101432.00;;;;5050379;28;20631;-77
2021/08/18 00:10:33;;;;;;;1.50;1.17;;;;;22.00;101439.00;;;;5069585;28;20214;-77
2021/08/18 00:13:01;;;;;;;3.63;1.60;;;;;22.00;101434.00;;;;5069563;28;20195;-77
2021/08/18 00:15:29;;;;;;;1.88;1.50;;;;;22.00;101431.00;;;;5069337;28;20187;-77
2021/08/18 00:18:00;;;;;;;2.00;1.33;;;;;22.00;101429.00;;;;5069024;28;20573;-78
2021/08/18 00:20:29;;;;;;;2.55;1.70;;;;;21.90;101426.00;;;;5069369;28;20191;-77
2021/08/18 00:22:57;;;;;;;2.47;1.85;;;;;22.00;101426.00;;;;5069049;28;20602;-77
2021/08/18 00:25:26;;;;;;;2.75;1.80;;;;;22.00;101427.00;;;;5067961;28;20213;-77
2021/08/18 00:27:53;;;;;;;3.55;2.38;;;;;22.00;101431.00;;;;5069574;28;20195;-77
2021/08/18 00:30:21;;;;;;;2.60;1.88;;;;;22.00;101429.00;;;;5069223;28;20209;-77
2021/08/18 00:32:48;;;;;;;2.47;1.95;;;;;22.00;101422.00;;;;5069820;28;20210;-78
2021/08/18 00:35:15;;;;;;;2.15;1.95;;;;;22.00;101434.00;;;;5058181;28;20210;-78
2021/08/18 00:37:44;;;;;;;4.18;1.90;;;;;22.00;101433.00;;;;5048963;28;20219;-78
2021/08/18 00:40:12;;;;;;;2.17;1.50;;;;;22.00;101427.00;;;;5049697;28;20246;-78
2021/08/18 00:42:41;;;;;;;3.25;2.42;;;;;22.00;101429.00;;;;5049767;28;20239;-78
2021/08/18 00:45:09;;;;;;;2.22;1.80;;;;;21.90;101429.00;;;;5049031;28;20670;-78
2021/08/18 00:47:44;;;;;;;4.57;1.80;;;;;21.90;101431.00;;;;5049087;28;20207;-78
2021/08/18 00:50:13;;;;;;;1.95;1.48;;;;;21.90;101433.00;;;;5048693;28;20195;-78
2021/08/18 00:52:41;;;;;;;1.90;1.42;;;;;22.00;101432.00;;;;5049128;28;20211;-78
2021/08/18 00:55:12;;;;;;;2.05;1.55;;;;;21.90;101436.00;;;;5049003;28;20565;-78
2021/08/18 00:57:40;;;;;;;2.67;1.60;;;;;22.00;101438.00;;;;5048975;28;20203;-78
2021/08/18 01:00:09;;;;;;;2.00;1.60;;;;;22.00;101433.00;;;;5049276;28;20204;-78
2021/08/18 01:02:38;;;;;;;1.50;1.38;;;;;22.00;101426.00;;;;5049047;28;20227;-78
2021/08/18 01:05:08;;;;;;;3.35;1.70;;;;;21.90;101419.00;;;;5048600;28;20203;-79
2021/08/18 01:07:36;;;;;;;1.63;1.35;;;;;22.00;101417.00;;;;5048469;28;20212;-78
2021/08/18 01:10:05;;;;;;;3.63;1.77;;;;;21.90;101416.00;;;;5048597;28;20207;-78
2021/08/18 01:12:35;;;;;;;3.92;1.25;;;;;21.90;101411.00;;;;5048423;28;20200;-78
2021/08/18 01:15:05;;;;;;;1.42;1.15;;;;;21.90;101415.00;;;;5049274;28;20203;-78
2021/08/18 01:17:33;;;;;;;2.88;1.17;;;;;21.90;101415.00;;;;5049477;28;20199;-78
2021/08/18 01:20:01;;;;;;;2.72;1.60;;;;;21.90;101419.00;;;;5049418;28;20207;-78
2021/08/18 01:22:29;;;;;;;1.13;1.02;;;;;21.90;101416.00;;;;5048587;28;20207;-78
2021/08/18 01:24:57;;;;;;;2.20;1.42;;;;;21.90;101428.00;;;;5048395;28;20210;-78
2021/08/18 01:27:24;;;;;;;2.15;1.40;;;;;21.90;101424.00;;;;5048655;28;20207;-78
2021/08/18 01:29:53;;;;;;;1.65;1.20;;;;;21.90;101422.00;;;;5048746;28;20234;-79
2021/08/18 01:32:20;;;;;;;1.50;1.40;;;;;21.90;101423.00;;;;5048599;28;20621;-78
2021/08/18 01:34:47;;;;;;;1.55;1.35;;;;;21.90;101425.00;;;;5048854;28;20207;-78
2021/08/18 01:37:14;;;;;;;1.95;1.48;;;;;21.90;101430.00;;;;5048368;28;20717;-78
2021/08/18 01:39:42;;;;;;;1.45;1.33;;;;;21.90;101430.00;;;;5047852;28;20223;-78
2021/08/18 01:42:09;;;;;;;1.55;1.40;;;;;21.90;101436.00;;;;5048437;28;20293;-78
2021/08/18 01:44:36;;;;;;;2.33;1.33;;;;;21.90;101433.00;;;;5048778;28;20227;-78
2021/08/18 01:47:05;;;;;;;3.42;1.50;;;;;21.90;101434.00;;;;5048668;28;20646;-78
2021/08/18 01:49:33;;;;;;;3.47;1.40;;;;;21.90;101430.00;;;;5048030;28;20715;-78
2021/08/18 01:52:00;;;;;;;2.20;1.58;;;;;21.90;101427.00;;;;5049445;28;20207;-78
2021/08/18 01:54:27;;;;;;;1.73;1.33;;;;;21.90;101424.00;;;;5048870;28;20204;-78
2021/08/18 01:56:54;;;;;;;1.60;1.10;;;;;21.90;101425.00;;;;5048065;28;20203;-78
2021/08/18 01:59:26;;;;;;;2.03;1.23;;;;;21.90;101425.00;;;;5048439;28;20196;-78
2021/08/18 02:01:53;;;;;;;1.75;1.15;;;;;21.90;101425.00;;;;5048730;28;20254;-77
2021/08/18 02:04:21;;;;;;;2.17;1.08;;;;;21.80;101426.00;;;;5048100;28;20223;-77
2021/08/18 02:06:49;;;;;;;2.08;1.58;;;;;21.90;101420.00;;;;5047757;28;20204;-78
2021/08/18 02:09:16;;;;;;;1.58;1.23;;;;;21.90;101412.00;;;;5049036;28;20216;-78
2021/08/18 02:11:43;;;;;;;1.25;0.95;;;;;21.80;101408.00;;;;5048384;28;20306;-77
2021/08/18 02:14:11;;;;;;;1.42;1.02;;;;;21.80;101414.00;;;;5047778;28;20209;-78
2021/08/18 02:16:38;;;;;;;2.00;1.23;;;;;21.80;101413.00;;;;5048192;28;20662;-78
2021/08/18 02:19:05;;;;;;;2.63;1.05;;;;;21.80;101411.00;;;;5048151;28;20198;-78
2021/08/18 02:21:34;;;;;;;1.55;0.93;;;;;21.80;101410.00;;;;5051714;28;20200;-77
2021/08/18 02:24:01;;;;;;;1.60;1.05;;;;;21.80;101410.00;;;;5052225;28;20227;-78
2021/08/18 02:26:28;;;;;;;1.65;0.82;;;;;21.80;101417.00;;;;5051460;28;20585;-77
2021/08/18 02:28:56;;;;;;;2.45;1.02;;;;;21.80;101419.00;;;;5051843;28;20203;-77
2021/08/18 02:31:27;;;;;;;2.70;0.85;;;;;21.80;101418.00;;;;5051156;28;20199;-78
2021/08/18 02:33:54;;;;;;;1.10;0.93;;;;;21.80;101420.00;;;;5051660;28;20210;-78
2021/08/18 02:36:21;;;;;;;2.13;0.98;;;;;21.80;101409.00;;;;5050581;28;20709;-77
2021/08/18 02:38:51;;;;;;;1.30;1.08;;;;;21.80;101404.00;;;;5050880;28;20209;-77
2021/08/18 02:41:18;;;;;;;2.30;1.00;;;;;21.80;101408.00;;;;5052968;28;20219;-77
2021/08/18 02:43:46;;;;;;;3.03;1.58;;;;;21.80;101399.00;;;;5071023;28;20223;-78
2021/08/18 02:46:13;;;;;;;1.60;1.00;;;;;21.80;101414.00;;;;5070263;28;20580;-77
2021/08/18 02:48:40;;;;;;;1.20;0.93;;;;;21.80;101410.00;;;;5070826;28;20206;-77
2021/08/18 02:51:07;;;;;;;1.10;0.88;;;;;21.70;101410.00;;;;5070478;28;20791;-78
2021/08/18 02:53:34;;;;;;;2.08;1.30;;;;;21.70;101405.00;;;;5070491;28;20203;-77
2021/08/18 02:56:03;;;;;;;2.67;1.67;;;;;21.70;101402.00;;;;5057768;28;20207;-77
2021/08/18 02:58:31;;;;;;;1.20;0.95;;;;;21.70;101402.00;;;;5065253;28;20216;-77
2021/08/18 03:00:58;;;;;;;3.65;1.20;;;;;21.70;101408.00;;;;5050586;28;20235;-77
2021/08/18 03:03:25;;;;;;;3.15;1.13;;;;;21.70;101411.00;;;;5049583;28;20791;-78
2021/08/18 03:05:52;;;;;;;1.27;1.17;;;;;21.70;101411.00;;;;5050520;28;20200;-77
2021/08/18 03:08:20;;;;;;;1.50;1.30;;;;;21.70;101410.00;;;;5050187;28;20203;-77
2021/08/18 03:10:47;;;;;;;1.90;1.38;;;;;21.70;101402.00;;;;5050249;28;20203;-77
2021/08/18 03:13:15;;;;;;;1.50;1.30;;;;;21.70;101399.00;;;;5049793;28;20204;-78
2021/08/18 03:15:43;;;;;;;1.52;1.15;;;;;21.70;101397.00;;;;5050643;28;20214;-78
2021/08/18 03:18:10;;;;;;;1.98;1.40;;;;;21.70;101408.00;;;;5049738;28;20204;-77
2021/08/18 03:20:37;;;;;;;2.10;1.50;;;;;21.70;101407.00;;;;5050007;28;20216;-77
2021/08/18 03:23:05;;;;;;;1.55;1.20;;;;;21.70;101407.00;;;;5049867;28;20214;-78
2021/08/18 03:25:32;;;;;;;2.50;1.40;;;;;21.70;101407.00;;;;5050002;28;20573;-78
2021/08/18 03:28:00;;;;;;;2.53;1.45;;;;;21.70;101408.00;;;;5049568;28;20199;-78
2021/08/18 03:30:29;;;;;;;1.90;1.40;;;;;21.70;101408.00;;;;5049801;28;20588;-78
2021/08/18 03:32:57;;;;;;;2.03;1.30;;;;;21.70;101405.00;;;;5050096;28;20192;-78
2021/08/18 03:35:24;;;;;;;2.90;1.35;;;;;21.70;101408.00;;;;5049844;28;20239;-78
2021/08/18 03:37:52;;;;;;;1.52;1.30;;;;;21.70;101404.00;;;;5049101;28;20200;-78
2021/08/18 03:40:19;;;;;;;2.70;1.25;;;;;21.70;101402.00;;;;5050008;28;20247;-78
2021/08/18 03:42:47;;;;;;;1.77;1.40;;;;;21.70;101401.00;;;;5049855;28;20203;-78
2021/08/18 03:45:14;;;;;;;1.88;1.23;;;;;21.70;101392.00;;;;5049028;28;20285;-78
2021/08/18 03:47:43;;;;;;;2.13;1.20;;;;;21.70;101396.00;;;;5049561;28;20204;-78
2021/08/18 03:50:11;;;;;;;1.38;1.15;;;;;21.70;101395.00;;;;5058892;28;20214;-78
2021/08/18 03:52:40;;;;;;;1.50;0.93;;;;;21.70;101395.00;;;;5069631;28;20206;-78
2021/08/18 03:55:08;;;;;;;1.92;1.58;;;;;21.70;101400.00;;;;5069420;28;20286;-78
2021/08/18 03:57:35;;;;;;;2.35;1.30;;;;;21.70;101400.00;;;;5069361;28;20203;-78
2021/08/18 04:00:03;;;;;;;1.77;1.10;;;;;21.70;101398.00;;;;5069005;28;20202;-78
2021/08/18 04:02:30;;;;;;;2.50;1.60;;;;;21.70;101404.00;;;;5069390;28;20206;-77
2021/08/18 04:04:59;;;;;;;1.25;1.10;;;;;21.70;101398.00;;;;5069042;28;20230;-78
2021/08/18 04:07:26;;;;;;;3.38;1.75;;;;;21.70;101405.00;;;;5068215;28;20572;-78
2021/08/18 04:09:53;;;;;;;2.15;1.55;;;;;21.70;101405.00;;;;5069221;28;20199;-78
2021/08/18 04:12:20;;;;;;;1.85;1.50;;;;;21.70;101396.00;;;;5068475;28;20214;-78
2021/08/18 04:14:48;;;;;;;1.77;1.17;;;;;21.70;101407.00;;;;5069199;28;20210;-78
2021/08/18 04:17:15;;;;;;;3.15;1.33;;;;;21.70;101407.00;;;;5069202;28;20203;-78
2021/08/18 04:19:42;;;;;;;1.95;1.23;;;;;21.70;101404.00;;;;5069336;28;20210;-78
2021/08/18 04:22:11;;;;;;;1.60;1.25;;;;;21.70;101409.00;;;;5068696;28;20199;-78
2021/08/18 04:24:38;;;;;;;1.55;1.15;;;;;21.70;101402.00;;;;5067570;28;20234;-78
2021/08/18 04:27:06;;;;;;;2.15;1.20;;;;;21.70;101410.00;;;;5068408;28;20214;-78
2021/08/18 04:29:33;;;;;;;8.55;1.25;;;;;21.70;101409.00;;;;5068861;28;20209;-78
2021/08/18 04:32:00;;;;;;;1.98;1.13;;;;;21.70;101405.00;;;;5067676;28;20699;-78
2021/08/18 04:34:28;;;;;;;1.60;0.88;;;;;21.70;101409.00;;;;5048450;28;20202;-78
2021/08/18 04:36:55;;;;;;;3.03;1.60;;;;;21.70;101411.00;;;;5047965;28;20705;-77
2021/08/18 04:39:24;;;;;;;3.08;1.20;;;;;21.70;101402.00;;;;5048137;28;20226;-78
2021/08/18 04:41:51;;;;;;;1.77;1.00;;;;;21.70;101406.00;;;;5049240;28;20684;-78
2021/08/18 04:44:18;;;;;;;2.22;1.38;;;;;21.70;101403.00;;;;5047788;28;20234;-77
2021/08/18 04:46:45;;;;;;;1.52;1.08;;;;;21.70;101395.00;;;;5047849;28;20211;-78
2021/08/18 04:49:12;;;;;;;1.33;1.15;;;;;21.70;101396.00;;;;5048148;28;20203;-78
2021/08/18 04:51:39;;;;;;;1.80;1.17;;;;;21.70;101399.00;;;;5048914;28;20199;-78
2021/08/18 04:54:07;;;;;;;2.13;1.30;;;;;21.70;101403.00;;;;5048905;28;20257;-77
2021/08/18 04:56:35;;;;;;;1.50;1.25;;;;;21.60;101402.00;;;;5048746;28;20223;-78
2021/08/18 04:59:02;;;;;;;1.13;0.95;;;;;21.70;101412.00;;;;5049353;28;20203;-78
2021/08/18 05:01:30;;;;;;;4.90;1.27;;;;;21.60;101409.00;;;;5049180;28;20199;-78
2021/08/18 05:03:57;;;;;;;1.60;0.98;;;;;21.60;101406.00;;;;5049364;28;20228;-78
2021/08/18 05:06:24;;;;;;;1.77;1.15;;;;;21.60;101389.00;;;;5048477;28;20749;-77
2021/08/18 05:08:51;;;;;;;1.27;0.90;;;;;21.60;101394.00;;;;5049220;28;20195;-77
2021/08/18 05:11:19;;;;;;;1.10;1.00;;;;;21.60;101396.00;;;;5048392;28;20604;-78
2021/08/18 05:13:47;;;;;;;2.83;1.30;;;;;21.60;101399.00;;;;5048493;28;20208;-78
2021/08/18 05:16:14;;;;;;;2.65;1.45;;;;;21.60;101404.00;;;;5049229;28;20691;-78
2021/08/18 05:18:42;;;;;;;1.85;1.00;;;;;21.60;101411.00;;;;5049032;28;20203;-78
2021/08/18 05:21:09;;;;;;;2.33;1.20;;;;;21.60;101414.00;;;;5048503;28;20207;-78
2021/08/18 05:23:36;;;;;;;1.85;0.90;;;;;21.60;101412.00;;;;5048656;28;20211;-78
2021/08/18 05:26:04;;;;;;;3.53;1.10;;;;;21.60;101410.00;;;;5049116;28;20203;-77
2021/08/18 05:28:31;;;;;;;2.30;1.10;;;;;21.60;101405.00;;;;5048873;28;20203;-78
2021/08/18 05:31:00;;;;;;;1.58;1.20;;;;;21.60;101396.00;;;;5049001;28;20199;-77
2021/08/18 05:33:27;;;;;;;1.20;1.00;;;;;21.60;101399.00;;;;5047976;28;20203;-78
2021/08/18 05:35:55;;;;;;;1.65;1.10;;;;;21.60;101397.00;;;;5048839;28;20227;-77
2021/08/18 05:38:23;;;;;;;4.05;1.08;;;;;21.60;101391.00;;;;5048488;28;20669;-78
2021/08/18 05:40:50;;;;;;;1.33;1.17;;;;;21.60;101401.00;;;;5048093;28;20223;-78
2021/08/18 05:43:17;;;;;;;1.38;1.00;;;;;21.60;101392.00;;;;5048809;28;20211;-78
2021/08/18 05:45:44;;;;;;;1.20;0.88;;;;;21.60;101396.00;;;;5048908;28;20226;-77
2021/08/18 05:48:13;;;;;;;3.15;0.98;;;;;21.60;101394.00;;;;5047775;28;20696;-78
2021/08/18 05:50:40;;;;;;;5.55;1.17;;;;;21.60;101393.00;;;;5048948;28;20214;-78
2021/08/18 05:53:15;;;;;;;1.52;1.10;;;;;21.60;101393.00;;;;5048182;28;20207;-78
2021/08/18 05:55:42;;;;;;;1.30;0.80;;;;;21.60;101396.00;;;;5050704;28;20199;-78
2021/08/18 05:58:10;;;;;;;1.60;0.93;;;;;21.70;101395.00;;;;5051469;28;20205;-77
2021/08/18 06:00:37;;;;;;;2.03;1.05;;;;;21.70;101396.00;;;;5051618;28;20211;-77
2021/08/18 06:03:04;;;;;;;2.13;1.13;;;;;21.70;101402.00;;;;5052310;28;20199;-78
2021/08/18 06:05:33;;;;;;;3.50;1.23;;;;;21.70;101403.00;;;;5052157;28;20239;-78
2021/08/18 06:08:00;;;;;;;1.77;0.98;;;;;21.70;101396.00;;;;5052527;28;20200;-78
2021/08/18 06:10:27;;;;;;;2.42;1.10;;;;;21.70;101400.00;;;;5051853;28;20204;-78
2021/08/18 06:12:54;;;;;;;5.28;1.42;;;;;21.70;101405.00;;;;5051766;28;20200;-78
2021/08/18 06:15:22;;;;;;;1.15;0.68;;;;;21.80;101415.00;;;;5051926;28;20200;-78
2021/08/18 06:17:49;;;;;;;1.27;0.80;;;;;21.80;101412.00;;;;5051765;28;20210;-78
2021/08/18 06:20:17;;;;;;;0.85;0.75;;;;;21.80;101414.00;;;;5051814;28;20211;-78
2021/08/18 06:22:47;;;;;;;1.27;1.00;;;;;21.80;101417.00;;;;5051463;28;20234;-78
2021/08/18 06:25:15;;;;;;;1.90;1.08;;;;;21.80;101417.00;;;;5051237;28;20305;-78
2021/08/18 06:27:42;;;;;;;3.85;0.90;;;;;21.80;101417.00;;;;5051404;28;20210;-78
2021/08/18 06:30:10;;;;;;;2.50;0.88;;;;;21.90;101424.00;;;;5051732;28;20199;-78
2021/08/18 06:32:38;;;;;;;2.15;1.27;;;;;21.90;101422.00;;;;5051343;28;20681;-78
2021/08/18 06:35:06;;;;;;;2.83;1.10;;;;;21.90;101420.00;;;;5051172;28;20207;-78
2021/08/18 06:37:34;;;;;;;2.17;1.00;;;;;22.00;101421.00;;;;5051402;28;20240;-78
2021/08/18 06:40:03;;;;;;;1.38;1.05;;;;;22.00;101414.00;;;;5051410;28;20224;-78
2021/08/18 06:42:31;;;;;;;1.17;0.88;;;;;22.00;101424.00;;;;5051470;28;20290;-78
2021/08/18 06:44:58;;;;;;;1.30;1.20;;;;;22.00;101417.00;;;;5051926;28;20249;-78
2021/08/18 06:47:25;;;;;;;2.53;0.98;;;;;22.00;101423.00;;;;5050577;28;20564;-78
2021/08/18 06:49:52;;;;;;;1.52;1.20;;;;;22.10;101419.00;;;;5051293;28;20207;-78
2021/08/18 06:52:20;;;;;;;0.95;0.85;;;;;22.10;101424.00;;;;5051065;28;20200;-78
2021/08/18 06:54:47;;;;;;;2.47;1.00;;;;;22.10;101424.00;;;;5050926;28;20204;-78
2021/08/18 06:57:15;;;;;;;3.17;1.05;;;;;22.10;101425.00;;;;5050183;28;20666;-77
2021/08/18 06:59:43;;;;;;;1.25;1.08;;;;;22.20;101430.00;;;;5051039;28;20204;-78
2021/08/18 07:02:10;;;;;;;1.23;1.00;;;;;22.20;101424.00;;;;5051196;28;20196;-77
2021/08/18 07:04:37;;;;;;;1.55;1.05;;;;;22.20;101423.00;;;;5050827;28;20219;-78
2021/08/18 07:07:05;;;;;;;1.30;0.98;;;;;22.20;101426.00;;;;5049627;28;20215;-77
2021/08/18 07:09:32;;;;;;;1.27;0.88;;;;;22.30;101426.00;;;;5050949;28;20206;-77
2021/08/18 07:11:59;;;;;;;1.27;1.17;;;;;22.30;101421.00;;;;5051371;28;20203;-78
2021/08/18 07:14:27;;;;;;;2.90;0.73;;;;;22.30;101414.00;;;;5050601;28;20218;-78
2021/08/18 07:16:55;;;;;;;1.30;0.93;;;;;22.30;101420.00;;;;5050774;28;20203;-78
2021/08/18 07:19:22;;;;;;;1.80;1.20;;;;;22.40;101427.00;;;;5050782;28;20199;-78
2021/08/18 07:21:49;;;;;;;1.50;1.00;;;;;22.40;101419.00;;;;5050822;28;20203;-78
2021/08/18 07:24:16;;;;;;;1.27;0.90;;;;;22.40;101419.00;;;;5050245;28;20692;-78
2021/08/18 07:26:44;;;;;;;1.48;1.10;;;;;22.50;101426.00;;;;5050369;28;20211;-78
2021/08/18 07:29:11;;;;;;;1.50;1.00;;;;;22.50;101424.00;;;;5050503;28;20183;-78
2021/08/18 07:31:39;;;;;;;2.67;1.20;;;;;22.50;101421.00;;;;5050161;28;20200;-78
2021/08/18 07:34:07;;;;;;;2.00;0.90;;;;;22.60;101423.00;;;;5050497;28;20211;-78
2021/08/18 07:36:34;;;;;;;3.65;1.55;;;;;22.60;101422.00;;;;5050312;28;20250;-78
2021/08/18 07:39:01;;;;;;;1.35;1.15;;;;;22.60;101423.00;;;;5050736;28;20203;-78
2021/08/18 07:41:28;;;;;;;1.83;1.20;;;;;22.70;101428.00;;;;5050199;28;20226;-78
2021/08/18 07:43:56;;;;;;;1.38;1.15;;;;;22.70;101416.00;;;;5049926;28;20199;-78
2021/08/18 07:46:23;;;;;;;1.75;1.38;;;;;22.80;101428.00;;;;5050641;28;20219;-78
2021/08/18 07:48:51;;;;;;;2.88;1.10;;;;;22.80;101423.00;;;;5050150;28;20654;-78
2021/08/18 07:51:19;;;;;;;2.50;1.38;;;;;22.80;101420.00;;;;5049975;28;20257;-78
2021/08/18 07:53:46;;;;;;;9.20;1.70;;;;;22.80;101421.00;;;;5049960;28;20211;-78
2021/08/18 07:56:13;;;;;;;2.42;1.38;;;;;22.90;101425.00;;;;5049575;28;20203;-78
2021/08/18 07:58:40;;;;;;;1.85;1.55;;;;;22.90;101426.00;;;;5049689;28;20211;-78
2021/08/18 08:01:08;;;;;;;1.92;1.42;;;;;22.90;101425.00;;;;5049826;28;20647;-78
2021/08/18 08:03:35;;;;;;;4.82;1.77;;;;;23.00;101424.00;;;;5049709;28;20207;-79
2021/08/18 08:06:03;;;;;;;1.83;1.50;;;;;23.00;101426.00;;;;5049944;28;20612;-79
2021/08/18 08:08:31;;;;;;;2.08;1.58;;;;;23.10;101422.00;;;;5050143;28;20215;-79
2021/08/18 08:10:58;;;;;;;2.63;1.40;;;;;23.10;101427.00;;;;5049269;28;20208;-79
2021/08/18 08:13:25;;;;;;;1.70;1.50;;;;;23.10;101428.00;;;;5049896;28;20545;-78
2021/08/18 08:15:52;;;;;;;3.15;1.58;;;;;23.10;101426.00;;;;5049518;28;21149;-79
2021/08/18 08:18:19;;;;;;;2.47;1.40;;;;;23.20;101426.00;;;;5048515;28;20250;-78
2021/08/18 08:20:47;;;;;;;2.20;1.30;;;;;23.20;101425.00;;;;5049576;28;20203;-79
2021/08/18 08:23:15;;;;;;;2.67;1.70;;;;;23.20;101421.00;;;;5049835;28;20688;-79
2021/08/18 08:25:42;;;;;;;3.72;1.83;;;;;23.30;101424.00;;;;5049546;28;20310;-78
2021/08/18 08:28:10;;;;;;;2.13;1.85;;;;;23.30;101425.00;;;;5049366;28;20622;-78
2021/08/18 08:30:37;;;;;;;1.98;1.60;;;;;23.30;101428.00;;;;5049519;28;20203;-79
2021/08/18 08:33:04;;;;;;;2.25;1.77;;;;;23.30;101431.00;;;;5049326;28;20204;-79
2021/08/18 08:35:32;;;;;;;3.83;1.65;;;;;23.40;101424.00;;;;5049004;28;20677;-79
2021/08/18 08:37:59;;;;;;;2.60;1.88;;;;;23.40;101427.00;;;;5049624;28;20215;-79
2021/08/18 08:40:29;;;;;;;2.13;1.85;;;;;23.40;101424.00;;;;5068702;28;20592;-79
2021/08/18 08:42:57;;;;;;;5.13;1.95;;;;;23.50;101421.00;;;;5069286;28;20294;-79
2021/08/18 08:45:26;;;;;;;2.28;1.63;;;;;23.50;101423.00;;;;5069272;28;20222;-79
2021/08/18 08:47:54;;;;;;;4.10;2.25;;;;;23.60;101421.00;;;;5068769;28;20195;-79
2021/08/18 08:50:21;;;;;;;5.10;2.40;;;;;23.60;101419.00;;;;5069033;28;20207;-79
2021/08/18 08:52:49;;;;;;;3.75;2.20;;;;;23.70;101427.00;;;;5068972;28;20206;-79
2021/08/18 08:55:16;;;;;;;2.72;1.98;;;;;23.70;101419.00;;;;5064431;28;20254;-79
2021/08/18 08:57:50;;;;;;;2.60;2.30;;;;;23.70;101422.00;;;;5059460;28;20549;-79
2021/08/18 09:00:18;;;;;;;5.50;2.03;;;;;23.80;101419.00;;;;5048432;28;20209;-79
2021/08/18 09:02:47;;;;;;;3.65;2.75;;;;;23.80;101421.00;;;;5049011;28;20207;-79
2021/08/18 09:05:27;;;;;;;3.28;2.90;;;;;23.80;101420.00;;;;5048996;28;20277;-79
2021/08/18 09:07:57;;;;;;;5.05;2.53;;;;;23.90;101417.00;;;;5048845;28;20203;-78
2021/08/18 09:10:25;;;;;;;4.93;2.55;;;;;23.90;101414.00;;;;5048590;28;20191;-79
2021/08/18 09:13:08;;;;;;;2.97;2.67;;;;;23.90;101421.00;;;;5056004;28;20221;-79
2021/08/18 09:15:35;;;;;;;4.55;2.70;;;;;24.00;101416.00;;;;5068697;28;20210;-79
2021/08/18 09:18:02;;;;;;;4.85;3.22;;;;;24.10;101415.00;;;;5069161;28;20205;-79
2021/08/18 09:20:30;;;;;;;3.90;2.75;;;;;24.10;101417.00;;;;5068348;28;20203;-78
2021/08/18 09:23:00;;;;;;;3.92;3.35;;;;;24.10;101409.00;;;;5068808;28;20218;-79
2021/08/18 09:25:28;;;;;;;5.70;2.75;;;;;24.20;101413.00;;;;5068617;28;20222;-79
2021/08/18 09:28:15;;;;;;;3.60;3.05;;;;;24.20;101409.00;;;;5068863;28;20202;-79
2021/08/18 09:30:44;;;;;;;3.22;2.92;;;;;24.30;101412.00;;;;5056490;28;20692;-79
2021/08/18 09:33:13;;;;;;;8.48;3.85;;;;;24.30;101410.00;;;;5052811;28;20214;-79
2021/08/18 09:35:41;;;;;;;4.53;4.15;;;;;24.40;101409.00;;;;5051881;28;20235;-79
2021/08/18 09:38:11;;;;;;;4.88;3.88;;;;;24.40;101405.00;;;;5052138;28;20850;-79
2021/08/18 09:40:40;;;;;;;4.82;4.35;;;;;24.40;101404.00;;;;5052631;28;20223;-77
2021/08/18 09:43:11;;;;;;;4.53;4.07;;;;;24.40;101400.00;;;;5052155;28;20203;-78
2021/08/18 09:45:40;;;;;;;5.63;4.72;;;;;24.50;101400.00;;;;5052213;28;20234;-79
2021/08/18 09:48:10;;;;;;;4.47;4.07;;;;;24.50;101400.00;;;;5069757;28;20202;-79
2021/08/18 09:50:49;;;;;;;4.97;4.40;;;;;24.40;101401.00;;;;5072200;28;20584;-78
2021/08/18 09:53:18;;;;;;;5.30;4.45;;;;;24.50;101393.00;;;;5072750;28;20203;-79
2021/08/18 09:55:57;;;;;;;5.00;4.50;;;;;24.40;101400.00;;;;5071884;28;20203;-79
2021/08/18 09:58:28;;;;;;;5.13;4.22;;;;;24.40;101394.00;;;;5072019;28;20198;-78
2021/08/18 10:00:57;;;;;;;6.07;3.92;;;;;24.40;101396.00;;;;5072582;28;20207;-78
2021/08/18 10:03:26;;;;;;;5.68;4.63;;;;;24.40;101396.00;;;;5071128;28;20210;-79
2021/08/18 10:05:55;;;;;;;5.68;4.72;;;;;24.40;101399.00;;;;5071737;28;20234;-78
2021/08/18 10:08:23;;;;;;;5.50;4.35;;;;;24.40;101396.00;;;;5070384;28;20294;-78
2021/08/18 10:10:51;;;;;;;3.72;3.42;;;;;24.30;101390.00;;;;5071638;28;20207;-79
2021/08/18 10:13:18;;;;;;;3.17;2.88;;;;;24.30;101391.00;;;;5071912;28;20199;-78
2021/08/18 10:15:47;;;;;;;3.22;2.95;;;;;24.20;101391.00;;;;5071820;28;20207;-79
2021/08/18 10:18:29;;;;;;;3.53;2.75;;;;;24.10;101387.00;;;;5071507;28;20203;-78
2021/08/18 10:20:58;;;;;;;3.28;2.75;;;;;24.10;101386.00;;;;5063122;28;20678;-78
2021/08/18 10:23:46;;;;;;;2.58;2.38;;;;;24.00;101389.00;;;;5051350;28;20963;-78
2021/08/18 10:26:47;;;;;;;3.05;2.38;;;;;24.00;101380.00;;;;5052041;28;20254;-78
2021/08/18 10:29:17;;;;;;;2.17;1.98;;;;;24.10;101381.00;;;;5051659;28;20210;-79
2021/08/18 10:32:08;;;;;;;4.30;2.90;;;;;24.10;101386.00;;;;5051770;28;20578;-78
2021/08/18 10:34:42;;;;;;;7.13;2.90;;;;;24.10;101389.00;;;;5051596;28;20731;-79
2021/08/18 10:37:29;;;;;;;3.95;2.92;;;;;24.00;101386.00;;;;5052385;28;20560;-79
2021/08/18 10:39:58;;;;;;;4.85;2.60;;;;;24.10;101388.00;;;;5071487;28;20314;-78
2021/08/18 10:42:40;;;;;;;3.58;3.28;;;;;24.00;101396.00;;;;5070985;28;20203;-78
2021/08/18 10:45:37;;;;;;;4.88;3.60;;;;;24.00;101396.00;;;;5071508;28;20207;-78
2021/08/18 10:48:07;;;;;;;3.30;3.00;;;;;24.10;101393.00;;;;5071420;28;20205;-78
2021/08/18 10:50:43;;;;;;;3.42;2.72;;;;;24.10;101394.00;;;;5071083;28;20203;-78
2021/08/18 10:53:29;;;;;;;4.43;3.55;;;;;24.00;101385.00;;;;5071395;28;20202;-77
2021/08/18 10:55:56;;;;;;;4.00;3.60;;;;;24.20;101388.00;;;;5070506;28;20203;-78
2021/08/18 10:58:31;;;;;;;4.65;4.00;;;;;24.10;101387.00;;;;5070815;28;20210;-78
2021/08/18 11:00:58;;;;;;;4.65;4.22;;;;;24.20;101380.00;;;;5070996;28;20201;-78
2021/08/18 11:03:30;;;;;;;4.55;4.15;;;;;24.20;101378.00;;;;5070744;28;20583;-78
2021/08/18 11:05:58;;;;;;;4.32;3.83;;;;;24.30;101376.00;;;;5071209;28;20632;-78
2021/08/18 11:08:26;;;;;;;5.05;4.18;;;;;24.30;101378.00;;;;5070852;28;20967;-78
2021/08/18 11:11:14;;;;;;;5.65;4.57;;;;;24.20;101377.00;;;;5070265;28;20199;-78
2021/08/18 11:13:44;;;;;;;4.30;3.90;;;;;24.30;101372.00;;;;5070643;28;20866;-79
2021/08/18 11:16:13;;;;;;;6.50;4.40;;;;;24.30;101376.00;;;;5070378;28;20514;-78
2021/08/18 11:18:49;;;;;;;5.45;4.47;;;;;24.30;101375.00;;;;5070801;28;20195;-79
2021/08/18 11:21:18;;;;;;;6.13;4.47;;;;;24.30;101374.00;;;;5070941;28;20206;-78
2021/08/18 11:23:51;;;;;;;5.03;4.50;;;;;24.30;101377.00;;;;5070535;28;20195;-78
2021/08/18 11:26:21;;;;;;;3.75;3.45;;;;;24.30;101370.00;;;;5070404;28;20233;-78
2021/08/18 11:28:56;;;;;;;6.88;4.40;;;;;24.30;101372.00;;;;5062823;28;20214;-78
2021/08/18 11:31:35;;;;;;;4.72;4.30;;;;;24.30;101374.00;;;;5050168;28;20195;-78
2021/08/18 11:34:05;;;;;;;4.28;3.88;;;;;24.40;101372.00;;;;5050509;28;20222;-78
2021/08/18 11:36:35;;;;;;;7.60;5.03;;;;;24.50;101366.00;;;;5050169;28;20579;-78
2021/08/18 11:39:05;;;;;;;4.95;3.88;;;;;24.60;101362.00;;;;5049951;28;20249;-78
2021/08/18 11:41:37;;;;;;;8.43;4.75;;;;;24.60;101365.00;;;;5050657;28;20255;-77
2021/08/18 11:44:05;;;;;;;4.50;3.90;;;;;24.70;101367.00;;;;5050004;28;20226;-78
2021/08/18 11:46:32;;;;;;;10.15;4.72;;;;;24.80;101362.00;;;;5050713;28;20318;-79
2021/08/18 11:49:09;;;;;;;7.82;4.85;;;;;24.70;101359.00;;;;5049881;28;20242;-78
2021/08/18 11:51:37;;;;;;;5.43;3.97;;;;;24.80;101360.00;;;;5050535;28;20207;-78
2021/08/18 11:54:08;;;;;;;4.70;4.03;;;;;24.80;101361.00;;;;5050035;28;20204;-78
2021/08/18 11:56:35;;;;;;;7.68;4.18;;;;;24.90;101364.00;;;;5059330;28;20230;-78
2021/08/18 11:59:04;;;;;;;6.53;3.78;;;;;24.90;101351.00;;;;5051882;28;20195;-78
2021/08/18 12:01:32;;;;;;;4.68;3.63;;;;;24.90;101360.00;;;;5049200;28;20195;-78
2021/08/18 12:04:01;;;;;;;4.53;3.50;;;;;24.90;101347.00;;;;5066002;28;20234;-78
2021/08/18 12:06:34;;;;;;;9.05;4.30;;;;;24.90;101349.00;;;;5069209;28;20233;-78
2021/08/18 12:09:04;;;;;;;4.03;3.10;;;;;24.90;101348.00;;;;5069570;28;20917;-77
2021/08/18 12:11:34;;;;;;;2.95;2.65;;;;;25.00;101341.00;;;;5069262;28;20209;-78
2021/08/18 12:14:13;;;;;;;5.18;2.92;;;;;25.00;101350.00;;;;5068679;28;20268;-78
2021/08/18 12:16:41;;;;;;;6.35;3.42;;;;;25.10;101347.00;;;;5069170;28;20202;-78